createdAt,value
2023-07-01T00:01:06.149Z,20.40
2023-07-01T00:03:33.625Z,20.42
2023-07-01T00:06:00.523Z,20.43
2023-07-01T00:08:27.327Z,20.45
2023-07-01T00:10:56.325Z,20.47
2023-07-01T00:13:25.212Z,20.49
2023-07-01T00:15:51.940Z,20.52
2023-07-01T00:18:18.680Z,20.55
2023-07-01T00:20:45.660Z,20.59
2023-07-01T00:23:12.569Z,20.60
2023-07-01T00:25:39.437Z,20.59
2023-07-01T00:28:06.277Z,20.58
2023-07-01T00:30:33.904Z,20.57
2023-07-01T00:33:01.569Z,20.58
2023-07-01T00:35:28.643Z,20.59
2023-07-01T00:37:55.367Z,20.61
2023-07-01T00:40:22.111Z,20.61
2023-07-01T00:42:49.468Z,20.61
2023-07-01T00:45:16.308Z,20.62
2023-07-01T00:47:44.682Z,20.61
2023-07-01T00:50:14.738Z,20.58
2023-07-01T00:52:42.194Z,20.57
2023-07-01T00:55:09.818Z,20.57
2023-07-01T00:57:36.976Z,20.56
2023-07-01T01:00:10.102Z,20.57
2023-07-01T01:03:22.155Z,20.58
2023-07-01T01:05:58.556Z,20.62
2023-07-01T01:08:29.607Z,20.67
2023-07-01T01:10:57.892Z,20.72
2023-07-01T01:13:24.938Z,20.79
2023-07-01T01:15:51.888Z,20.88
2023-07-01T01:18:18.674Z,20.95
2023-07-01T01:20:45.759Z,21.00
2023-07-01T01:23:20.857Z,21.03
2023-07-01T01:25:50.122Z,21.01
2023-07-01T01:28:17.149Z,21.02
2023-07-01T01:30:44.838Z,21.02
2023-07-01T01:33:11.834Z,21.02
2023-07-01T01:35:38.977Z,21.02
2023-07-01T01:38:06.944Z,21.00
2023-07-01T01:40:43.182Z,20.98
2023-07-01T01:43:47.498Z,20.92
2023-07-01T01:46:14.626Z,20.83
2023-07-01T01:48:41.322Z,20.75
2023-07-01T01:51:08.631Z,20.65
2023-07-01T01:53:40.169Z,20.57
2023-07-01T01:56:07.059Z,20.46
2023-07-01T01:58:34.498Z,20.32
2023-07-01T02:01:01.300Z,20.19
2023-07-01T02:03:28.386Z,20.02
2023-07-01T02:05:55.364Z,19.85
2023-07-01T02:08:24.847Z,19.74
2023-07-01T02:10:51.903Z,19.71
2023-07-01T02:13:18.777Z,19.74
2023-07-01T02:15:45.989Z,19.80
2023-07-01T02:18:12.842Z,19.84
2023-07-01T02:20:39.725Z,19.87
2023-07-01T02:23:06.946Z,19.90
2023-07-01T02:25:34.633Z,19.94
2023-07-01T02:28:01.402Z,19.98
2023-07-01T02:30:28.078Z,20.00
2023-07-01T02:32:55.014Z,19.99
2023-07-01T02:35:21.817Z,20.01
2023-07-01T02:37:48.622Z,20.06
2023-07-01T02:40:18.152Z,20.12
2023-07-01T02:42:46.012Z,20.10
2023-07-01T02:45:12.770Z,20.07
2023-07-01T02:47:41.431Z,20.03
2023-07-01T02:50:08.718Z,20.05
2023-07-01T02:52:35.514Z,20.09
2023-07-01T02:55:02.280Z,20.16
2023-07-01T02:57:29.203Z,20.22
2023-07-01T02:59:56.343Z,20.25
2023-07-01T03:02:23.137Z,20.26
2023-07-01T03:04:49.885Z,20.40
2023-07-01T03:07:16.599Z,20.70
2023-07-01T03:09:43.417Z,21.10
2023-07-01T03:12:10.214Z,21.57
2023-07-01T03:14:37.802Z,22.06
2023-07-01T03:17:05.220Z,22.56
2023-07-01T03:19:36.306Z,23.10
2023-07-01T03:22:03.127Z,23.63
2023-07-01T03:24:34.902Z,24.00
2023-07-01T03:27:03.443Z,24.34
2023-07-01T03:29:30.704Z,24.70
2023-07-01T03:31:57.516Z,25.08
2023-07-01T03:34:24.242Z,25.39
2023-07-01T03:36:51.226Z,25.60
2023-07-01T03:39:17.923Z,25.76
2023-07-01T03:41:44.643Z,25.79
2023-07-01T03:44:12.392Z,25.62
2023-07-01T03:46:39.383Z,25.56
2023-07-01T03:49:06.125Z,25.64
2023-07-01T03:51:33.989Z,25.73
2023-07-01T03:54:01.735Z,25.68
2023-07-01T03:56:28.856Z,25.60
2023-07-01T03:58:55.844Z,25.63
2023-07-01T04:01:26.216Z,25.77
2023-07-01T04:03:54.553Z,26.11
2023-07-01T04:06:21.737Z,26.61
2023-07-01T04:08:56.013Z,27.15
2023-07-01T04:11:23.975Z,27.63
2023-07-01T04:13:50.719Z,27.96
2023-07-01T04:16:17.678Z,28.30
2023-07-01T04:18:44.427Z,28.73
2023-07-01T04:21:11.288Z,29.16
2023-07-01T04:23:38.214Z,29.55
2023-07-01T04:26:05.743Z,29.75
2023-07-01T04:28:32.975Z,29.77
2023-07-01T04:31:00.503Z,29.54
2023-07-01T04:33:27.510Z,29.21
2023-07-01T04:35:54.832Z,28.98
2023-07-01T04:38:21.590Z,28.76
2023-07-01T04:40:51.226Z,28.69
2023-07-01T04:43:21.607Z,28.73
2023-07-01T04:45:48.453Z,28.89
2023-07-01T04:48:15.232Z,29.04
2023-07-01T04:50:42.171Z,29.01
2023-07-01T04:53:09.239Z,28.74
2023-07-01T04:55:35.953Z,28.49
2023-07-01T04:58:03.217Z,28.49
2023-07-01T05:00:30.527Z,28.72
2023-07-01T05:02:57.764Z,29.01
2023-07-01T05:05:25.306Z,29.13
2023-07-01T05:07:52.697Z,29.37
2023-07-01T05:10:19.476Z,29.75
2023-07-01T05:12:46.269Z,29.92
2023-07-01T05:15:13.190Z,29.98
2023-07-01T05:17:40.827Z,30.23
2023-07-01T05:20:09.570Z,30.69
2023-07-01T05:22:37.074Z,31.11
2023-07-01T05:25:04.593Z,31.21
2023-07-01T05:27:33.095Z,31.12
2023-07-01T05:29:59.945Z,31.13
2023-07-01T05:32:26.947Z,31.33
2023-07-01T05:34:55.080Z,31.52
2023-07-01T05:37:22.130Z,31.69
2023-07-01T05:39:49.008Z,31.86
2023-07-01T05:42:16.093Z,31.93
2023-07-01T05:44:43.206Z,32.02
2023-07-01T05:47:10.077Z,32.13
2023-07-01T05:49:36.871Z,32.48
2023-07-01T05:52:04.168Z,32.96
2023-07-01T05:54:32.620Z,33.33
2023-07-01T05:56:59.726Z,33.70
2023-07-01T05:59:27.253Z,34.08
2023-07-01T06:01:54.229Z,34.50
2023-07-01T06:04:21.580Z,34.90
2023-07-01T06:06:48.742Z,35.28
2023-07-01T06:09:18.419Z,35.62
2023-07-01T06:11:45.340Z,35.79
2023-07-01T06:14:13.216Z,35.81
2023-07-01T06:16:42.165Z,35.55
2023-07-01T06:19:11.107Z,35.24
2023-07-01T06:21:41.824Z,35.04
2023-07-01T06:24:11.495Z,35.02
2023-07-01T06:26:41.333Z,34.82
2023-07-01T06:29:12.107Z,34.67
2023-07-01T06:31:42.989Z,34.52
2023-07-01T06:34:15.169Z,34.35
2023-07-01T06:36:44.985Z,34.20
2023-07-01T06:39:15.107Z,34.19
2023-07-01T06:41:46.132Z,34.03
2023-07-01T06:44:17.207Z,33.86
2023-07-01T06:46:48.121Z,33.93
2023-07-01T06:49:19.309Z,33.92
2023-07-01T06:51:50.170Z,33.73
2023-07-01T06:54:20.804Z,33.67
2023-07-01T06:56:50.358Z,33.97
2023-07-01T06:59:21.140Z,34.30
2023-07-01T07:01:51.227Z,34.35
2023-07-01T07:04:21.423Z,34.12
2023-07-01T07:06:50.988Z,33.77
2023-07-01T07:09:22.149Z,33.66
2023-07-01T07:11:56.154Z,33.70
2023-07-01T07:14:26.186Z,33.82
2023-07-01T07:16:56.349Z,33.75
2023-07-01T07:27:02.956Z,32.76
2023-07-01T07:37:09.899Z,33.10
2023-07-01T07:39:37.326Z,33.06
2023-07-01T07:42:04.894Z,32.89
2023-07-01T07:44:32.531Z,32.92
2023-07-01T07:47:01.468Z,32.91
2023-07-01T07:49:28.598Z,32.72
2023-07-01T07:51:55.682Z,32.58
2023-07-01T07:54:22.700Z,32.63
2023-07-01T07:56:49.772Z,32.76
2023-07-01T07:59:16.554Z,33.08
2023-07-01T08:01:43.549Z,33.06
2023-07-01T08:04:10.703Z,32.92
2023-07-01T08:06:38.479Z,32.93
2023-07-01T08:09:05.313Z,32.91
2023-07-01T08:11:32.112Z,32.82
2023-07-01T08:13:58.952Z,32.73
2023-07-01T08:16:25.797Z,32.84
2023-07-01T08:18:52.688Z,33.01
2023-07-01T08:21:19.470Z,33.06
2023-07-01T08:23:46.343Z,32.96
2023-07-01T08:26:13.088Z,32.83
2023-07-01T08:28:40.081Z,32.74
2023-07-01T08:31:06.834Z,32.51
2023-07-01T08:33:34.003Z,32.38
2023-07-01T08:36:00.772Z,32.38
2023-07-01T08:38:30.088Z,32.28
2023-07-01T08:40:58.643Z,32.23
2023-07-01T08:43:28.451Z,32.18
2023-07-01T08:45:55.611Z,32.31
2023-07-01T08:48:22.727Z,32.69
2023-07-01T08:50:54.151Z,33.07
2023-07-01T08:53:20.916Z,33.08
2023-07-01T08:55:47.860Z,32.98
2023-07-01T08:58:15.531Z,32.93
2023-07-01T09:00:42.337Z,32.91
2023-07-01T09:03:09.390Z,32.97
2023-07-01T09:05:36.680Z,33.00
2023-07-01T09:08:03.596Z,33.19
2023-07-01T09:10:30.992Z,33.38
2023-07-01T09:13:09.842Z,33.26
2023-07-01T09:15:49.776Z,32.98
2023-07-01T09:18:20.501Z,32.40
2023-07-01T09:20:48.202Z,31.99
2023-07-01T09:23:28.672Z,31.98
2023-07-01T09:26:16.900Z,32.17
2023-07-01T09:28:47.408Z,32.19
2023-07-01T09:31:18.047Z,32.18
2023-07-01T09:34:05.027Z,32.21
2023-07-01T09:36:32.210Z,32.31
2023-07-01T09:38:59.320Z,32.42
2023-07-01T09:41:28.112Z,32.50
2023-07-01T09:43:56.147Z,32.60
2023-07-01T09:46:23.640Z,32.56
2023-07-01T09:48:54.606Z,32.55
2023-07-01T09:51:22.442Z,32.58
2023-07-01T09:53:49.359Z,32.70
2023-07-01T09:56:17.637Z,32.83
2023-07-01T09:58:45.652Z,32.83
2023-07-01T10:01:13.688Z,32.75
2023-07-01T10:03:43.795Z,32.82
2023-07-01T10:06:10.982Z,32.87
2023-07-01T10:08:42.703Z,32.76
2023-07-01T10:11:23.006Z,32.71
2023-07-01T10:13:52.333Z,32.55
2023-07-01T10:16:20.163Z,32.29
2023-07-01T10:18:47.481Z,32.26
2023-07-01T10:21:28.633Z,32.50
2023-07-01T10:23:59.948Z,32.72
2023-07-01T10:26:32.779Z,32.64
2023-07-01T10:28:59.861Z,32.49
2023-07-01T10:31:26.819Z,32.24
2023-07-01T10:33:54.429Z,32.04
2023-07-01T10:36:21.552Z,31.78
2023-07-01T10:38:48.492Z,31.52
2023-07-01T10:41:15.323Z,31.31
2023-07-01T10:43:42.298Z,31.36
2023-07-01T10:46:25.121Z,31.35
2023-07-01T10:49:03.862Z,31.14
2023-07-01T10:51:34.282Z,30.89
2023-07-01T10:54:08.684Z,30.77
2023-07-01T10:56:38.160Z,30.69
2023-07-01T10:59:30.801Z,30.63
2023-07-01T11:01:58.439Z,30.58
2023-07-01T11:04:25.676Z,30.65
2023-07-01T11:06:53.699Z,30.73
2023-07-01T11:09:30.511Z,30.74
2023-07-01T11:11:58.110Z,30.67
2023-07-01T11:14:35.819Z,30.52
2023-07-01T11:17:10.881Z,30.53
2023-07-01T11:19:39.357Z,30.57
2023-07-01T11:22:06.830Z,30.61
2023-07-01T11:24:33.765Z,30.69
2023-07-01T11:27:04.450Z,30.82
2023-07-01T11:29:31.548Z,30.91
2023-07-01T11:32:02.393Z,30.98
2023-07-01T11:34:29.853Z,31.04
2023-07-01T11:36:56.921Z,31.00
2023-07-01T11:39:23.847Z,30.93
2023-07-01T11:41:56.638Z,30.94
2023-07-01T11:44:25.573Z,31.09
2023-07-01T11:46:53.842Z,31.37
2023-07-01T11:49:27.636Z,31.64
2023-07-01T11:51:55.245Z,31.82
2023-07-01T11:54:23.572Z,31.81
2023-07-01T11:56:53.542Z,31.70
2023-07-01T11:59:30.471Z,31.74
2023-07-01T12:01:57.514Z,31.75
2023-07-01T12:04:25.267Z,31.64
2023-07-01T12:07:11.104Z,31.62
2023-07-01T12:09:44.387Z,31.73
2023-07-01T12:12:11.612Z,31.75
2023-07-01T12:14:39.894Z,31.74
2023-07-01T12:17:07.037Z,31.71
2023-07-01T12:19:34.013Z,31.74
2023-07-01T12:22:01.381Z,31.85
2023-07-01T12:24:32.964Z,31.98
2023-07-01T12:27:01.560Z,32.12
2023-07-01T12:29:28.573Z,32.23
2023-07-01T12:31:57.503Z,32.35
2023-07-01T12:34:24.508Z,32.36
2023-07-01T12:36:51.437Z,32.25
2023-07-01T12:39:19.237Z,32.30
2023-07-01T12:41:47.190Z,32.32
2023-07-01T12:44:14.118Z,32.32
2023-07-01T12:46:44.494Z,32.26
2023-07-01T12:49:12.838Z,32.17
2023-07-01T12:51:41.919Z,32.05
2023-07-01T12:54:17.903Z,32.07
2023-07-01T12:56:46.466Z,32.14
2023-07-01T12:59:13.364Z,32.11
2023-07-01T13:01:44.019Z,32.15
2023-07-01T13:04:12.221Z,32.05
2023-07-01T13:06:39.865Z,31.94
2023-07-01T13:09:08.354Z,32.04
2023-07-01T13:11:37.750Z,31.99
2023-07-01T13:14:14.533Z,31.83
2023-07-01T13:16:42.671Z,31.76
2023-07-01T13:19:13.968Z,31.76
2023-07-01T13:21:47.901Z,31.73
2023-07-01T13:24:15.979Z,31.76
2023-07-01T13:26:43.748Z,31.98
2023-07-01T13:29:14.607Z,32.26
2023-07-01T13:31:42.254Z,32.48
2023-07-01T13:34:09.609Z,32.48
2023-07-01T13:36:39.320Z,32.26
2023-07-01T13:39:13.418Z,32.07
2023-07-01T13:41:40.326Z,32.03
2023-07-01T13:44:23.946Z,32.16
2023-07-01T13:46:51.914Z,32.25
2023-07-01T13:49:24.744Z,32.09
2023-07-01T13:51:52.684Z,31.91
2023-07-01T13:54:23.304Z,31.85
2023-07-01T13:56:51.392Z,31.88
2023-07-01T13:59:19.918Z,31.88
2023-07-01T14:02:05.513Z,31.87
2023-07-01T14:04:34.030Z,31.76
2023-07-01T14:07:01.883Z,31.57
2023-07-01T14:09:30.020Z,31.39
2023-07-01T14:11:57.773Z,31.21
2023-07-01T14:14:28.451Z,31.17
2023-07-01T14:16:56.041Z,31.23
2023-07-01T14:19:24.769Z,31.25
2023-07-01T14:21:55.622Z,31.22
2023-07-01T14:24:31.131Z,31.11
2023-07-01T14:27:04.771Z,30.98
2023-07-01T14:29:35.212Z,30.85
2023-07-01T14:32:26.813Z,30.77
2023-07-01T14:34:57.397Z,30.67
2023-07-01T14:37:28.358Z,30.55
2023-07-01T14:39:59.217Z,30.44
2023-07-01T14:42:34.655Z,30.32
2023-07-01T14:45:04.612Z,30.22
2023-07-01T14:47:35.364Z,30.09
2023-07-01T14:50:05.812Z,30.00
2023-07-01T14:52:35.812Z,29.97
2023-07-01T14:55:06.804Z,29.96
2023-07-01T14:57:37.336Z,29.97
2023-07-01T15:00:07.279Z,29.98
2023-07-01T15:02:38.855Z,30.00
2023-07-01T15:05:09.800Z,29.99
2023-07-01T15:07:41.173Z,29.97
2023-07-01T15:10:10.800Z,29.97
2023-07-01T15:12:42.022Z,29.95
2023-07-01T15:15:12.814Z,29.93
2023-07-01T15:17:43.869Z,29.92
2023-07-01T15:27:54.503Z,29.82
2023-07-01T15:30:21.345Z,29.75
2023-07-01T15:32:49.397Z,29.69
2023-07-01T15:35:27.458Z,29.63
2023-07-01T15:37:55.510Z,29.53
2023-07-01T15:40:22.731Z,29.46
2023-07-01T15:42:50.396Z,29.34
2023-07-01T15:45:17.338Z,29.22
2023-07-01T15:47:44.735Z,29.10
2023-07-01T15:50:11.766Z,29.00
2023-07-01T15:52:38.940Z,28.94
2023-07-01T15:55:06.780Z,28.90
2023-07-01T15:57:34.096Z,28.84
2023-07-01T16:00:01.953Z,28.74
2023-07-01T16:02:39.047Z,28.63
2023-07-01T16:05:15.783Z,28.50
2023-07-01T16:07:51.237Z,28.36
2023-07-01T16:10:18.434Z,28.21
2023-07-01T16:12:48.289Z,28.14
2023-07-01T16:15:20.198Z,28.06
2023-07-01T16:17:54.548Z,28.04
2023-07-01T16:20:34.518Z,28.04
2023-07-01T16:23:04.885Z,28.06
2023-07-01T16:25:32.268Z,28.03
2023-07-01T16:27:59.282Z,27.99
2023-07-01T16:30:26.372Z,27.95
2023-07-01T16:33:00.014Z,27.94
2023-07-01T16:35:50.514Z,27.90
2023-07-01T16:38:28.401Z,27.84
2023-07-01T16:40:55.321Z,27.84
2023-07-01T16:43:22.388Z,27.83
2023-07-01T16:45:49.808Z,27.82
2023-07-01T16:55:58.797Z,27.63
2023-07-01T16:58:31.418Z,27.57
2023-07-01T17:08:40.084Z,27.29
2023-07-01T17:11:06.928Z,27.25
2023-07-01T17:13:38.067Z,27.26
2023-07-01T17:16:06.373Z,27.28
2023-07-01T17:18:33.373Z,27.28
2023-07-01T17:21:00.214Z,27.27
2023-07-01T17:23:27.256Z,27.25
2023-07-01T17:25:54.312Z,27.20
2023-07-01T17:28:21.180Z,27.16
2023-07-01T17:30:48.104Z,27.06
2023-07-01T17:33:15.154Z,26.99
2023-07-01T17:35:42.822Z,26.95
2023-07-01T17:38:10.257Z,26.91
2023-07-01T17:40:37.129Z,26.87
2023-07-01T17:43:03.952Z,26.83
2023-07-01T17:45:30.768Z,26.78
2023-07-01T17:47:58.088Z,26.75
2023-07-01T17:50:24.964Z,26.72
2023-07-01T17:52:52.164Z,26.69
2023-07-01T17:55:19.087Z,26.64
2023-07-01T17:57:56.317Z,26.60
2023-07-01T18:00:24.975Z,26.57
2023-07-01T18:02:52.196Z,26.52
2023-07-01T18:05:19.747Z,26.47
2023-07-01T18:07:46.809Z,26.42
2023-07-01T18:10:14.193Z,26.38
2023-07-01T18:12:43.314Z,26.36
2023-07-01T18:15:14.886Z,26.32
2023-07-01T18:17:46.372Z,26.27
2023-07-01T18:20:13.690Z,26.23
2023-07-01T18:22:40.611Z,26.18
2023-07-01T18:25:07.756Z,26.12
2023-07-01T18:27:34.605Z,26.06
2023-07-01T18:30:01.635Z,25.99
2023-07-01T18:32:28.819Z,25.97
2023-07-01T18:34:56.820Z,25.95
2023-07-01T18:37:23.956Z,25.92
2023-07-01T18:39:51.504Z,25.90
2023-07-01T18:42:18.365Z,25.89
2023-07-01T18:44:45.494Z,25.87
2023-07-01T18:47:12.227Z,25.85
2023-07-01T18:49:39.284Z,25.84
2023-07-01T18:52:06.315Z,25.83
2023-07-01T18:54:34.116Z,25.80
2023-07-01T18:57:02.630Z,25.78
2023-07-01T18:59:29.480Z,25.76
2023-07-01T19:01:56.271Z,25.73
2023-07-01T19:04:26.941Z,25.70
2023-07-01T19:06:54.069Z,25.68
2023-07-01T19:09:21.585Z,25.64
2023-07-01T19:11:48.983Z,25.58
2023-07-01T19:14:15.981Z,25.53
2023-07-01T19:16:42.797Z,25.47
2023-07-01T19:19:09.626Z,25.41
2023-07-01T19:21:36.447Z,25.38
2023-07-01T19:24:03.283Z,25.33
2023-07-01T19:26:30.673Z,25.29
2023-07-01T19:28:57.910Z,25.24
2023-07-01T19:31:24.719Z,25.22
2023-07-01T19:33:51.531Z,25.18
2023-07-01T19:36:18.336Z,25.18
2023-07-01T19:38:45.514Z,25.17
2023-07-01T19:41:12.349Z,25.14
2023-07-01T19:43:39.172Z,25.15
2023-07-01T19:46:06.346Z,25.14
2023-07-01T19:48:34.901Z,25.14
2023-07-01T19:51:01.814Z,25.14
2023-07-01T19:53:28.644Z,25.14
2023-07-01T19:55:55.381Z,25.13
2023-07-01T19:58:24.469Z,25.14
2023-07-01T20:00:51.514Z,25.14
2023-07-01T20:03:19.168Z,25.13
2023-07-01T20:05:46.561Z,25.12
2023-07-01T20:08:14.063Z,25.08
2023-07-01T20:10:41.674Z,25.04
2023-07-01T20:13:09.206Z,24.98
2023-07-01T20:15:36.624Z,24.96
2023-07-01T20:18:03.671Z,24.93
2023-07-01T20:20:31.565Z,24.91
2023-07-01T20:22:58.594Z,24.90
2023-07-01T20:25:25.618Z,24.88
2023-07-01T20:27:52.494Z,24.87
2023-07-01T20:30:19.714Z,24.85
2023-07-01T20:32:47.513Z,24.82
2023-07-01T20:35:14.369Z,24.79
2023-07-01T20:37:41.995Z,24.77
2023-07-01T20:40:09.377Z,24.77
2023-07-01T20:42:37.052Z,24.75
2023-07-01T20:45:05.927Z,24.71
2023-07-01T20:47:32.748Z,24.66
2023-07-01T20:50:00.688Z,24.62
2023-07-01T20:52:27.758Z,24.57
2023-07-01T20:54:54.622Z,24.54
2023-07-01T20:57:21.331Z,24.53
2023-07-01T20:59:48.200Z,24.50
2023-07-01T21:02:14.946Z,24.47
2023-07-01T21:04:41.903Z,24.45
2023-07-01T21:07:08.877Z,24.44
2023-07-01T21:09:36.190Z,24.42
2023-07-01T21:12:03.279Z,24.41
2023-07-01T21:14:30.411Z,24.39
2023-07-01T21:16:57.586Z,24.37
2023-07-01T21:19:24.858Z,24.34
2023-07-01T21:21:51.791Z,24.28
2023-07-01T21:24:18.628Z,24.18
2023-07-01T21:26:45.607Z,24.09
2023-07-01T21:29:15.215Z,24.04
2023-07-01T21:31:52.563Z,24.02
2023-07-01T21:34:20.676Z,23.99
2023-07-01T21:36:50.590Z,23.98
2023-07-01T21:39:20.323Z,23.99
2023-07-01T21:41:47.396Z,23.99
2023-07-01T21:44:14.889Z,24.04
2023-07-01T21:46:42.127Z,24.06
2023-07-01T21:49:09.253Z,24.06
2023-07-01T21:51:36.281Z,24.07
2023-07-01T21:54:03.457Z,24.07
2023-07-01T21:56:38.837Z,24.07
2023-07-01T21:59:05.809Z,24.07
2023-07-01T22:01:34.295Z,24.08
2023-07-01T22:04:02.883Z,24.07
2023-07-01T22:06:32.354Z,24.06
2023-07-01T22:08:59.151Z,24.04
2023-07-01T22:11:27.312Z,24.02
2023-07-01T22:13:54.828Z,23.98
2023-07-01T22:16:22.659Z,23.96
2023-07-01T22:18:51.964Z,23.95
2023-07-01T22:21:19.143Z,23.95
2023-07-01T22:23:46.427Z,23.93
2023-07-01T22:26:13.457Z,23.91
2023-07-01T22:28:41.039Z,23.89
2023-07-01T22:31:10.031Z,23.89
2023-07-01T22:33:37.133Z,23.88
2023-07-01T22:36:06.232Z,23.87
2023-07-01T22:38:33.121Z,23.87
2023-07-01T22:40:59.956Z,23.89
2023-07-01T22:43:26.805Z,23.92
2023-07-01T22:45:53.991Z,23.94
2023-07-01T22:48:22.691Z,23.97
2023-07-01T22:50:49.731Z,24.00
2023-07-01T22:53:18.672Z,23.99
2023-07-01T22:55:45.819Z,23.98
2023-07-01T22:58:13.018Z,23.95
2023-07-01T23:00:40.092Z,23.93
2023-07-01T23:03:07.269Z,23.91
2023-07-01T23:05:35.479Z,23.87
2023-07-01T23:08:02.752Z,23.81
2023-07-01T23:10:29.884Z,23.75
2023-07-01T23:12:56.828Z,23.70
2023-07-01T23:15:23.703Z,23.67
2023-07-01T23:17:51.422Z,23.66
2023-07-01T23:20:19.376Z,23.68
2023-07-01T23:22:50.391Z,23.72
2023-07-01T23:25:20.660Z,23.77
2023-07-01T23:27:50.278Z,23.81
2023-07-01T23:30:20.288Z,23.85
2023-07-01T23:32:55.040Z,23.90
2023-07-01T23:35:25.485Z,23.93
2023-07-01T23:37:57.266Z,23.94
2023-07-01T23:40:27.262Z,23.96
2023-07-01T23:42:58.322Z,23.90
2023-07-01T23:45:28.201Z,23.87
2023-07-01T23:47:58.195Z,23.85
2023-07-01T23:50:28.112Z,23.83
2023-07-01T23:52:59.279Z,23.79
2023-07-01T23:55:29.680Z,23.79
2023-07-01T23:57:59.221Z,23.81
